createdAt,value
2024-01-10T00:00:49.996Z,102798.41
2024-01-10T00:03:19.865Z,102793.91
2024-01-10T00:05:50.046Z,102800.03
2024-01-10T00:08:23.362Z,102800.88
2024-01-10T00:10:53.275Z,102801.88
2024-01-10T00:13:26.213Z,102802.34
2024-01-10T00:15:57.055Z,102796.84
2024-01-10T00:18:29.897Z,102790.25
2024-01-10T00:20:59.932Z,102796.22
2024-01-10T00:23:32.423Z,102785.94
2024-01-10T00:26:03.037Z,102786.44
2024-01-10T00:28:36.420Z,102788.78
2024-01-10T00:31:07.073Z,102779.53
2024-01-10T00:33:47.687Z,102782.19
2024-01-10T00:36:17.959Z,102779.69
2024-01-10T00:38:51.371Z,102786.16
2024-01-10T00:41:21.802Z,102778.38
2024-01-10T00:43:51.915Z,102774.06
2024-01-10T00:46:23.333Z,102777.88
2024-01-10T00:48:56.483Z,102770.91
2024-01-10T00:51:32.363Z,102765.97
2024-01-10T00:54:07.755Z,102777.03
2024-01-10T00:56:37.777Z,102765.59
2024-01-10T00:59:07.891Z,102767.63
2024-01-10T01:01:38.270Z,102774.56
2024-01-10T01:04:10.142Z,102769.25
2024-01-10T01:06:49.290Z,102768.59
2024-01-10T01:09:23.176Z,102755.66
2024-01-10T01:11:53.629Z,102762.31
2024-01-10T01:14:23.587Z,102764.78
2024-01-10T01:16:53.604Z,102760.66
2024-01-10T01:19:23.618Z,102763.31
2024-01-10T01:21:56.589Z,102760.97
2024-01-10T01:24:32.468Z,102755.38
2024-01-10T01:27:02.339Z,102749.06
2024-01-10T01:29:33.257Z,102754.69
2024-01-10T01:32:03.281Z,102749.94
2024-01-10T01:34:41.945Z,102757.69
2024-01-10T01:37:12.208Z,102751.75
2024-01-10T01:39:44.911Z,102761.03
2024-01-10T01:42:18.258Z,102750.09
2024-01-10T01:44:48.625Z,102742.16
2024-01-10T01:47:19.752Z,102741.13
2024-01-10T01:49:53.460Z,102744.63
2024-01-10T01:52:24.004Z,102734.19
2024-01-10T01:54:56.471Z,102735.19
2024-01-10T01:57:26.498Z,102741.81
2024-01-10T01:59:59.128Z,102736.50
2024-01-10T02:02:34.653Z,102737.81
2024-01-10T02:05:05.610Z,102740.78
2024-01-10T02:07:35.526Z,102730.69
2024-01-10T02:10:08.996Z,102721.72
2024-01-10T02:12:39.133Z,102721.22
2024-01-10T02:15:10.057Z,102739.50
2024-01-10T02:17:43.585Z,102725.91
2024-01-10T02:20:15.267Z,102724.91
2024-01-10T02:22:48.376Z,102728.72
2024-01-10T02:25:23.092Z,102721.78
2024-01-10T02:27:54.159Z,102710.66
2024-01-10T02:30:30.169Z,102717.97
2024-01-10T02:33:00.173Z,102726.94
2024-01-10T02:35:34.306Z,102724.41
2024-01-10T02:38:04.541Z,102723.28
2024-01-10T02:40:41.963Z,102720.66
2024-01-10T02:43:12.762Z,102709.53
2024-01-10T02:45:43.043Z,102713.19
2024-01-10T02:48:13.256Z,102712.38
2024-01-10T02:50:45.193Z,102709.88
2024-01-10T02:53:15.253Z,102707.09
2024-01-10T02:55:49.466Z,102703.25
2024-01-10T02:58:20.204Z,102696.28
2024-01-10T03:00:53.772Z,102701.25
2024-01-10T03:03:23.656Z,102701.56
2024-01-10T03:06:01.716Z,102709.34
2024-01-10T03:08:32.435Z,102696.44
2024-01-10T03:11:05.141Z,102697.75
2024-01-10T03:13:41.365Z,102697.75
2024-01-10T03:16:14.520Z,102685.84
2024-01-10T03:18:45.237Z,102695.81
2024-01-10T03:21:26.682Z,102691.47
2024-01-10T03:23:57.885Z,102686.50
2024-01-10T03:26:31.993Z,102683.53
2024-01-10T03:29:02.848Z,102688.84
2024-01-10T03:31:35.202Z,102696.47
2024-01-10T03:34:05.808Z,102691.19
2024-01-10T03:36:39.305Z,102686.72
2024-01-10T03:39:10.598Z,102687.19
2024-01-10T03:41:43.162Z,102681.41
2024-01-10T03:44:13.779Z,102679.75
2024-01-10T03:46:44.401Z,102675.59
2024-01-10T03:49:14.790Z,102680.91
2024-01-10T03:51:44.765Z,102680.25
2024-01-10T03:54:15.206Z,102674.31
2024-01-10T03:56:48.434Z,102680.44
2024-01-10T03:59:18.710Z,102673.97
2024-01-10T04:01:49.756Z,102672.31
2024-01-10T04:04:23.792Z,102675.59
2024-01-10T04:06:53.697Z,102672.47
2024-01-10T04:09:23.678Z,102669.97
2024-01-10T04:11:56.181Z,102676.25
2024-01-10T04:14:29.792Z,102686.56
2024-01-10T04:17:00.472Z,102682.91
2024-01-10T04:19:30.390Z,102680.44
2024-01-10T04:22:02.850Z,102680.56
2024-01-10T04:24:33.201Z,102685.56
2024-01-10T04:27:09.304Z,102686.06
2024-01-10T04:29:43.740Z,102684.59
2024-01-10T04:32:16.750Z,102689.91
2024-01-10T04:34:46.998Z,102677.28
2024-01-10T04:37:17.197Z,102673.66
2024-01-10T04:39:49.242Z,102666.69
2024-01-10T04:42:22.100Z,102683.25
2024-01-10T04:44:52.176Z,102667.19
2024-01-10T04:47:22.728Z,102674.31
2024-01-10T04:49:52.793Z,102665.34
2024-01-10T04:52:23.373Z,102667.34
2024-01-10T04:54:56.102Z,102674.31
2024-01-10T04:57:28.586Z,102670.84
2024-01-10T04:59:59.175Z,102667.34
2024-01-10T05:02:29.790Z,102658.41
2024-01-10T05:05:10.576Z,102660.06
2024-01-10T05:07:41.573Z,102657.91
2024-01-10T05:10:11.900Z,102659.41
2024-01-10T05:12:46.109Z,102660.41
2024-01-10T05:15:18.297Z,102659.41
2024-01-10T05:17:48.323Z,102650.44
2024-01-10T05:20:18.346Z,102653.44
2024-01-10T05:22:48.362Z,102648.50
2024-01-10T05:25:19.794Z,102660.91
2024-01-10T05:27:52.386Z,102663.72
2024-01-10T05:30:23.153Z,102664.06
2024-01-10T05:32:54.008Z,102660.41
2024-01-10T05:35:26.015Z,102666.06
2024-01-10T05:37:56.146Z,102672.19
2024-01-10T05:40:26.030Z,102679.44
2024-01-10T05:42:58.579Z,102677.31
2024-01-10T05:45:29.372Z,102680.47
2024-01-10T05:47:59.591Z,102676.16
2024-01-10T05:50:29.606Z,102678.66
2024-01-10T05:52:59.859Z,102684.44
2024-01-10T05:55:29.859Z,102674.34
2024-01-10T05:58:02.288Z,102674.16
2024-01-10T06:00:34.840Z,102667.69
2024-01-10T06:03:04.862Z,102673.69
2024-01-10T06:05:37.728Z,102674.00
2024-01-10T06:08:08.368Z,102675.16
2024-01-10T06:10:38.872Z,102668.69
2024-01-10T06:13:11.460Z,102664.38
2024-01-10T06:15:41.340Z,102667.72
2024-01-10T06:18:11.388Z,102679.97
2024-01-10T06:20:41.573Z,102679.28
2024-01-10T06:23:11.520Z,102674.84
2024-01-10T06:25:41.416Z,102675.31
2024-01-10T06:28:13.941Z,102675.31
2024-01-10T06:30:46.598Z,102676.97
2024-01-10T06:33:16.702Z,102677.31
2024-01-10T06:35:46.745Z,102680.47
2024-01-10T06:38:18.367Z,102685.59
2024-01-10T06:40:49.031Z,102679.16
2024-01-10T06:43:21.821Z,102674.69
2024-01-10T06:45:52.288Z,102681.81
2024-01-10T06:48:22.236Z,102675.00
2024-01-10T06:50:52.092Z,102676.00
2024-01-10T06:53:22.035Z,102662.28
2024-01-10T06:55:52.306Z,102665.41
2024-01-10T06:58:24.885Z,102671.69
2024-01-10T07:00:55.386Z,102685.25
2024-01-10T07:03:25.397Z,102683.94
2024-01-10T07:05:55.289Z,102676.66
2024-01-10T07:08:25.279Z,102674.34
2024-01-10T07:10:57.095Z,102675.66
2024-01-10T07:13:29.729Z,102675.00
2024-01-10T07:15:59.692Z,102680.63
2024-01-10T07:18:29.625Z,102678.66
2024-01-10T07:20:59.581Z,102668.03
2024-01-10T07:23:29.528Z,102675.66
2024-01-10T07:26:00.259Z,102676.50
2024-01-10T07:28:33.975Z,102668.69
2024-01-10T07:31:04.041Z,102675.81
2024-01-10T07:33:34.610Z,102675.34
2024-01-10T07:36:05.362Z,102676.66
2024-01-10T07:38:37.735Z,102681.63
2024-01-10T07:41:08.115Z,102683.78
2024-01-10T07:43:40.998Z,102676.00
2024-01-10T07:46:10.904Z,102675.81
2024-01-10T07:48:40.894Z,102674.66
2024-01-10T07:51:11.099Z,102679.00
2024-01-10T07:53:41.032Z,102675.34
2024-01-10T07:56:10.847Z,102678.66
2024-01-10T07:58:43.482Z,102670.88
2024-01-10T08:01:14.121Z,102680.63
2024-01-10T08:03:44.119Z,102680.63
2024-01-10T08:06:20.851Z,102680.63
2024-01-10T08:08:57.320Z,102673.34
2024-01-10T08:11:27.539Z,102670.34
2024-01-10T08:14:00.059Z,102668.69
2024-01-10T08:16:30.008Z,102677.31
2024-01-10T08:19:00.738Z,102678.78
2024-01-10T08:21:30.745Z,102678.97
2024-01-10T08:24:01.031Z,102678.16
2024-01-10T08:26:31.314Z,102685.91
2024-01-10T08:29:04.016Z,102675.66
2024-01-10T08:31:33.958Z,102682.63
2024-01-10T08:34:04.712Z,102680.97
2024-01-10T08:36:34.660Z,102683.63
2024-01-10T08:39:07.757Z,102686.56
2024-01-10T08:41:44.406Z,102688.91
2024-01-10T08:44:17.621Z,102684.91
2024-01-10T08:46:52.376Z,102683.09
2024-01-10T08:49:22.546Z,102673.16
2024-01-10T08:51:54.665Z,102679.78
2024-01-10T08:54:25.971Z,102679.59
2024-01-10T08:56:56.071Z,102685.56
2024-01-10T08:59:30.417Z,102686.06
2024-01-10T09:02:00.365Z,102688.53
2024-01-10T09:04:30.333Z,102689.88
2024-01-10T09:06:57.688Z,102697.31
2024-01-10T09:09:29.135Z,102695.50
2024-01-10T09:11:59.070Z,102697.47
2024-01-10T09:14:32.114Z,102693.28
2024-01-10T09:17:04.137Z,102701.25
2024-01-10T09:19:34.698Z,102700.41
2024-01-10T09:22:12.366Z,102691.44
2024-01-10T09:24:47.497Z,102702.66
2024-01-10T09:27:17.864Z,102696.03
2024-01-10T09:29:58.166Z,102682.41
2024-01-10T09:32:28.162Z,102699.66
2024-01-10T09:34:58.792Z,102687.03
2024-01-10T09:37:28.735Z,102697.28
2024-01-10T09:40:14.863Z,102688.19
2024-01-10T09:42:51.917Z,102695.47
2024-01-10T09:45:26.721Z,102694.28
2024-01-10T09:48:01.056Z,102697.25
2024-01-10T09:50:37.044Z,102699.22
2024-01-10T09:53:10.730Z,102702.00
2024-01-10T09:55:41.554Z,102699.44
2024-01-10T09:58:12.906Z,102701.41
2024-01-10T10:00:45.542Z,102692.09
2024-01-10T10:03:18.256Z,102691.75
2024-01-10T10:05:49.198Z,102694.34
2024-01-10T10:08:23.973Z,102690.34
2024-01-10T10:10:54.450Z,102691.66
2024-01-10T10:13:31.466Z,102692.94
2024-01-10T10:16:08.535Z,102693.25
2024-01-10T10:18:38.699Z,102691.53
2024-01-10T10:21:14.419Z,102690.00
2024-01-10T10:23:45.647Z,102678.66
2024-01-10T10:26:21.412Z,102687.72
2024-01-10T10:28:52.049Z,102689.03
2024-01-10T10:31:24.769Z,102680.88
2024-01-10T10:34:02.862Z,102690.78
2024-01-10T10:36:34.501Z,102687.22
2024-01-10T10:39:05.741Z,102681.91
2024-01-10T10:41:36.419Z,102684.50
2024-01-10T10:44:14.007Z,102682.56
2024-01-10T10:46:52.953Z,102678.75
2024-01-10T10:49:33.008Z,102679.47
2024-01-10T10:52:06.956Z,102678.94
2024-01-10T10:54:39.193Z,102676.28
2024-01-10T10:57:10.070Z,102677.56
2024-01-10T10:59:41.401Z,102671.50
2024-01-10T11:02:14.771Z,102672.25
2024-01-10T11:04:45.743Z,102659.03
2024-01-10T11:07:16.141Z,102665.63
2024-01-10T11:09:48.514Z,102668.75
2024-01-10T11:12:39.537Z,102663.69
2024-01-10T11:15:25.631Z,102663.78
2024-01-10T11:18:14.491Z,102657.72
2024-01-10T11:21:00.084Z,102657.81
2024-01-10T11:23:45.739Z,102667.25
2024-01-10T11:26:25.468Z,102659.06
2024-01-10T11:28:55.750Z,102664.03
2024-01-10T11:31:33.018Z,102660.34
2024-01-10T11:34:06.708Z,102646.47
2024-01-10T11:36:36.826Z,102655.72
2024-01-10T11:39:11.830Z,102649.03
2024-01-10T11:41:44.110Z,102638.41
2024-01-10T11:44:38.254Z,102637.59
2024-01-10T11:47:09.004Z,102636.03
2024-01-10T11:49:41.834Z,102638.13
2024-01-10T11:52:13.373Z,102632.88
2024-01-10T11:54:46.196Z,102634.94
2024-01-10T11:57:24.358Z,102634.56
2024-01-10T11:59:55.845Z,102628.50
2024-01-10T12:02:27.692Z,102623.78
2024-01-10T12:05:01.004Z,102624.88
2024-01-10T12:07:34.171Z,102622.63
2024-01-10T12:10:04.547Z,102621.44
2024-01-10T12:12:34.861Z,102626.56
2024-01-10T12:15:04.997Z,102625.81
2024-01-10T12:17:34.895Z,102631.13
2024-01-10T12:20:08.493Z,102629.34
2024-01-10T12:22:38.912Z,102630.78
2024-01-10T12:25:08.915Z,102618.13
2024-01-10T12:27:39.660Z,102622.44
2024-01-10T12:30:17.937Z,102624.13
2024-01-10T12:32:54.591Z,102633.00
2024-01-10T12:35:27.179Z,102620.28
2024-01-10T12:38:00.514Z,102631.00
2024-01-10T12:40:30.583Z,102624.06
2024-01-10T12:43:06.304Z,102623.03
2024-01-10T12:45:36.290Z,102616.91
2024-01-10T12:48:09.698Z,102615.50
2024-01-10T12:50:42.276Z,102617.97
2024-01-10T12:53:12.341Z,102614.72
2024-01-10T12:55:42.296Z,102616.41
2024-01-10T12:58:12.277Z,102614.16
2024-01-10T13:00:42.547Z,102611.50
2024-01-10T13:03:12.417Z,102618.47
2024-01-10T13:05:45.022Z,102622.59
2024-01-10T13:08:15.101Z,102621.34
2024-01-10T13:10:45.997Z,102615.84
2024-01-10T13:13:16.346Z,102619.34
2024-01-10T13:15:46.713Z,102609.91
2024-01-10T13:18:17.307Z,102604.78
2024-01-10T13:21:00.913Z,102606.66
2024-01-10T13:23:30.891Z,102606.25
2024-01-10T13:26:01.027Z,102606.25
2024-01-10T13:28:31.637Z,102614.88
2024-01-10T13:31:01.732Z,102615.53
2024-01-10T13:33:46.797Z,102613.88
2024-01-10T13:36:20.974Z,102611.84
2024-01-10T13:38:51.209Z,102613.25
2024-01-10T13:41:21.143Z,102618.56
2024-01-10T13:43:51.643Z,102614.50
2024-01-10T13:46:24.218Z,102621.06
2024-01-10T13:48:54.660Z,102616.59
2024-01-10T13:51:31.832Z,102616.16
2024-01-10T13:54:04.643Z,102613.47
2024-01-10T13:56:37.985Z,102615.72
2024-01-10T13:59:11.071Z,102625.59
2024-01-10T14:01:41.532Z,102619.66
2024-01-10T14:04:11.448Z,102620.69
2024-01-10T14:06:44.313Z,102619.44
2024-01-10T14:09:19.128Z,102628.47
2024-01-10T14:11:50.109Z,102628.88
2024-01-10T14:14:27.080Z,102625.97
2024-01-10T14:17:18.936Z,102627.63
2024-01-10T14:19:49.646Z,102625.78
2024-01-10T14:22:30.359Z,102627.63
2024-01-10T14:25:03.370Z,102630.09
2024-01-10T14:27:33.534Z,102628.06
2024-01-10T14:30:04.843Z,102620.22
2024-01-10T14:32:35.177Z,102629.25
2024-01-10T14:35:02.854Z,102627.63
2024-01-10T14:37:37.796Z,102627.63
2024-01-10T14:40:08.795Z,102628.44
2024-01-10T14:42:38.697Z,102636.25
2024-01-10T14:45:09.812Z,102630.91
2024-01-10T14:47:42.754Z,102630.91
2024-01-10T14:50:13.559Z,102639.13
2024-01-10T14:52:46.822Z,102639.31
2024-01-10T14:55:19.637Z,102645.69
2024-01-10T14:57:49.544Z,102633.38
2024-01-10T15:00:20.679Z,102644.88
2024-01-10T15:02:50.736Z,102649.38
2024-01-10T15:05:20.731Z,102654.72
2024-01-10T15:07:53.726Z,102649.38
2024-01-10T15:10:23.806Z,102644.03
2024-01-10T15:12:53.662Z,102648.56
2024-01-10T15:15:23.658Z,102641.38
2024-01-10T15:17:53.499Z,102643.59
2024-01-10T15:20:23.796Z,102639.50
2024-01-10T15:22:57.364Z,102630.03
2024-01-10T15:25:28.092Z,102628.59
2024-01-10T15:27:58.258Z,102639.47
2024-01-10T15:30:37.651Z,102644.19
2024-01-10T15:33:14.440Z,102635.72
2024-01-10T15:35:44.500Z,102636.13
2024-01-10T15:38:17.106Z,102637.53
2024-01-10T15:40:47.066Z,102636.91
2024-01-10T15:43:19.886Z,102637.50
2024-01-10T15:45:54.648Z,102644.25
2024-01-10T15:48:25.034Z,102640.94
2024-01-10T15:50:54.900Z,102647.50
2024-01-10T15:53:27.373Z,102653.25
2024-01-10T15:55:57.559Z,102648.28
2024-01-10T15:58:29.543Z,102639.03
2024-01-10T16:00:59.556Z,102644.94
2024-01-10T16:03:31.696Z,102656.84
2024-01-10T16:06:01.815Z,102651.88
2024-01-10T16:08:34.620Z,102644.28
2024-01-10T16:11:04.488Z,102649.00
2024-01-10T16:13:34.419Z,102643.41
2024-01-10T16:16:05.772Z,102657.94
2024-01-10T16:18:35.787Z,102655.47
2024-01-10T16:21:21.187Z,102658.34
2024-01-10T16:23:58.780Z,102659.34
2024-01-10T16:26:33.763Z,102668.56
2024-01-10T16:29:05.076Z,102661.16
2024-01-10T16:31:35.046Z,102664.00
2024-01-10T16:34:05.218Z,102675.03
2024-01-10T16:36:35.075Z,102670.09
2024-01-10T16:39:07.569Z,102666.16
2024-01-10T16:41:37.484Z,102676.59
2024-01-10T16:44:07.870Z,102680.00
2024-01-10T16:46:37.832Z,102679.34
2024-01-10T16:49:07.810Z,102677.72
2024-01-10T16:51:39.054Z,102676.06
2024-01-10T16:54:11.668Z,102680.56
2024-01-10T16:56:41.715Z,102681.78
2024-01-10T16:59:11.597Z,102687.47
2024-01-10T17:01:41.467Z,102687.88
2024-01-10T17:04:11.463Z,102684.56
2024-01-10T17:06:42.834Z,102693.56
2024-01-10T17:09:17.791Z,102694.78
2024-01-10T17:11:47.682Z,102699.66
2024-01-10T17:14:17.741Z,102701.88
2024-01-10T17:16:47.672Z,102700.41
2024-01-10T17:19:17.793Z,102702.06
2024-01-10T17:21:47.673Z,102707.38
2024-01-10T17:24:20.265Z,102705.75
2024-01-10T17:26:50.239Z,102697.28
2024-01-10T17:29:22.745Z,102700.34
2024-01-10T17:31:52.655Z,102698.22
2024-01-10T17:34:23.246Z,102707.44
2024-01-10T17:36:53.150Z,102698.97
2024-01-10T17:39:26.432Z,102706.34
2024-01-10T17:41:56.339Z,102708.38
2024-01-10T17:44:26.363Z,102709.53
2024-01-10T17:46:56.521Z,102705.44
2024-01-10T17:49:26.468Z,102712.31
2024-01-10T17:51:56.449Z,102714.53
2024-01-10T17:54:28.996Z,102709.38
2024-01-10T17:56:59.617Z,102714.25
2024-01-10T17:59:29.636Z,102721.63
2024-01-10T18:02:00.247Z,102718.28
2024-01-10T18:04:31.015Z,102718.66
2024-01-10T18:07:02.132Z,102722.69
2024-01-10T18:09:34.639Z,102729.03
2024-01-10T18:12:06.406Z,102725.75
2024-01-10T18:14:36.512Z,102730.06
2024-01-10T18:17:06.823Z,102720.41
2024-01-10T18:19:37.046Z,102717.94
2024-01-10T18:22:07.373Z,102722.59
2024-01-10T18:24:40.053Z,102729.31
2024-01-10T18:27:09.906Z,102729.50
2024-01-10T18:29:39.847Z,102733.19
2024-01-10T18:32:09.875Z,102740.50
2024-01-10T18:34:39.807Z,102729.22
2024-01-10T18:37:10.211Z,102742.91
2024-01-10T18:39:42.804Z,102745.91
2024-01-10T18:42:13.209Z,102755.09
2024-01-10T18:44:43.127Z,102755.44
2024-01-10T18:47:13.471Z,102749.88
2024-01-10T18:49:43.422Z,102747.72
2024-01-10T18:52:13.742Z,102751.59
2024-01-10T18:54:46.727Z,102752.75
2024-01-10T18:57:18.294Z,102749.47
2024-01-10T18:59:48.326Z,102749.84
2024-01-10T19:02:18.363Z,102755.31
2024-01-10T19:04:48.310Z,102760.81
2024-01-10T19:07:18.254Z,102766.13
2024-01-10T19:09:50.802Z,102767.34
2024-01-10T19:12:20.866Z,102761.81
2024-01-10T19:14:50.709Z,102766.50
2024-01-10T19:17:22.372Z,102770.63
2024-01-10T19:19:58.523Z,102768.16
2024-01-10T19:22:36.227Z,102769.81
2024-01-10T19:25:12.587Z,102762.34
2024-01-10T19:27:42.551Z,102763.19
2024-01-10T19:30:22.279Z,102765.19
2024-01-10T19:32:52.897Z,102764.38
2024-01-10T19:35:23.400Z,102774.38
2024-01-10T19:37:53.448Z,102772.88
2024-01-10T19:40:25.958Z,102769.25
2024-01-10T19:42:55.930Z,102770.22
2024-01-10T19:45:25.882Z,102766.28
2024-01-10T19:47:55.851Z,102771.94
2024-01-10T19:50:26.107Z,102775.59
2024-01-10T19:52:57.719Z,102767.00
2024-01-10T19:55:30.276Z,102775.34
2024-01-10T19:58:00.198Z,102768.53
2024-01-10T20:00:30.069Z,102768.88
2024-01-10T20:03:02.168Z,102777.88
2024-01-10T20:05:32.288Z,102772.56
2024-01-10T20:08:02.385Z,102771.72
2024-01-10T20:10:37.389Z,102774.03
2024-01-10T20:13:08.347Z,102771.00
2024-01-10T20:15:38.704Z,102774.31
2024-01-10T20:18:08.961Z,102779.66
2024-01-10T20:20:39.060Z,102778.81
2024-01-10T20:23:09.157Z,102785.28
2024-01-10T20:25:49.470Z,102777.50
2024-01-10T20:28:20.428Z,102783.00
2024-01-10T20:30:50.515Z,102785.66
2024-01-10T20:33:21.074Z,102784.00
2024-01-10T20:35:52.398Z,102783.19
2024-01-10T20:38:23.149Z,102788.66
2024-01-10T20:40:58.609Z,102787.84
2024-01-10T20:43:32.974Z,102792.06
2024-01-10T20:46:03.805Z,102802.31
2024-01-10T20:48:36.954Z,102810.09
2024-01-10T20:51:07.047Z,102802.31
2024-01-10T20:53:38.960Z,102799.84
2024-01-10T20:56:12.628Z,102805.97
2024-01-10T20:58:42.694Z,102809.66
2024-01-10T21:01:14.253Z,102809.66
2024-01-10T21:03:44.271Z,102804.66
2024-01-10T21:06:16.242Z,102808.50
2024-01-10T21:08:49.779Z,102812.81
2024-01-10T21:11:31.390Z,102812.00
2024-01-10T21:14:08.079Z,102813.47
2024-01-10T21:16:38.288Z,102817.97
2024-01-10T21:19:08.558Z,102816.94
2024-01-10T21:21:39.754Z,102822.25
2024-01-10T21:24:10.156Z,102830.91
2024-01-10T21:26:44.721Z,102832.06
2024-01-10T21:29:17.818Z,102827.94
2024-01-10T21:31:54.640Z,102820.97
2024-01-10T21:34:25.220Z,102825.66
2024-01-10T21:36:58.488Z,102833.78
2024-01-10T21:39:28.446Z,102835.97
2024-01-10T21:42:00.979Z,102836.47
2024-01-10T21:44:31.051Z,102837.31
2024-01-10T21:47:02.689Z,102847.09
2024-01-10T21:49:32.864Z,102847.28
2024-01-10T21:52:02.689Z,102855.63
2024-01-10T21:54:34.103Z,102847.78
2024-01-10T21:57:06.818Z,102855.94
2024-01-10T21:59:36.732Z,102856.97
2024-01-10T22:02:07.131Z,102854.66
2024-01-10T22:04:37.171Z,102856.50
2024-01-10T22:07:07.462Z,102859.78
2024-01-10T22:09:37.375Z,102862.28
2024-01-10T22:12:11.187Z,102862.75
2024-01-10T22:14:41.215Z,102877.84
2024-01-10T22:17:11.109Z,102878.22
2024-01-10T22:19:41.014Z,102887.84
2024-01-10T22:22:10.966Z,102881.88
2024-01-10T22:24:40.975Z,102886.34
2024-01-10T22:27:13.555Z,102883.88
2024-01-10T22:29:43.524Z,102880.53
2024-01-10T22:32:18.302Z,102888.88
2024-01-10T22:34:49.928Z,102880.41
2024-01-10T22:37:19.885Z,102888.56
2024-01-10T22:39:49.926Z,102887.91
2024-01-10T22:42:22.478Z,102887.25
2024-01-10T22:45:01.312Z,102894.53
2024-01-10T22:47:31.532Z,102896.53
2024-01-10T22:50:01.452Z,102905.53
2024-01-10T22:52:31.441Z,102900.38
2024-01-10T22:55:02.354Z,102904.19
2024-01-10T22:57:34.893Z,102909.50
2024-01-10T23:00:09.922Z,102909.50
2024-01-10T23:02:39.894Z,102905.03
2024-01-10T23:05:11.465Z,102904.19
2024-01-10T23:07:41.935Z,102902.38
2024-01-10T23:10:24.413Z,102907.53
2024-01-10T23:13:00.004Z,102902.22
2024-01-10T23:15:32.935Z,102904.88
2024-01-10T23:18:06.318Z,102912.16
2024-01-10T23:20:37.272Z,102914.81
2024-01-10T23:23:07.598Z,102910.69
2024-01-10T23:25:37.462Z,102916.81
2024-01-10T23:28:10.080Z,102913.50
2024-01-10T23:30:39.965Z,102913.84
2024-01-10T23:33:09.976Z,102915.19
2024-01-10T23:35:47.636Z,102911.84
2024-01-10T23:38:19.095Z,102911.03
2024-01-10T23:40:49.406Z,102911.19
2024-01-10T23:43:27.006Z,102913.22
2024-01-10T23:45:58.026Z,102910.72
2024-01-10T23:48:28.395Z,102906.56
2024-01-10T23:50:58.411Z,102915.53
2024-01-10T23:53:28.639Z,102904.25
2024-01-10T23:55:58.600Z,102898.31
2024-01-10T23:58:31.069Z,102901.94
